createdAt,value
2022-09-28T00:02:49.859Z,2.80
2022-09-28T00:13:01.531Z,2.10
2022-09-28T00:18:04.538Z,2.30
2022-09-28T00:23:07.388Z,2.50
2022-09-28T00:28:10.496Z,3.10
2022-09-28T00:33:13.370Z,2.60
2022-09-28T00:38:17.090Z,2.30
2022-09-28T00:43:21.055Z,2.10
2022-09-28T00:48:27.094Z,2.40
2022-09-28T00:53:35.246Z,2.30
2022-09-28T00:58:50.229Z,2.30
2022-09-28T01:03:53.772Z,2.10
2022-09-28T01:14:03.463Z,1.90
2022-09-28T01:19:34.883Z,2.20
2022-09-28T01:24:46.756Z,2.10
2022-09-28T01:30:05.964Z,2.40
2022-09-28T01:35:36.626Z,3.00
2022-09-28T01:40:41.536Z,2.80
2022-09-28T01:45:52.586Z,2.80
2022-09-28T01:51:02.155Z,2.60
2022-09-28T01:56:13.453Z,3.00
2022-09-28T02:01:33.529Z,3.40
2022-09-28T02:06:47.082Z,3.20
2022-09-28T02:11:59.111Z,2.90
2022-09-28T02:17:02.120Z,3.90
2022-09-28T02:22:37.482Z,4.30
2022-09-28T02:28:05.338Z,4.50
2022-09-28T02:33:20.724Z,5.00
2022-09-28T02:38:23.553Z,5.30
2022-09-28T02:43:53.124Z,5.20
2022-09-28T02:49:39.450Z,5.40
2022-09-28T02:54:57.338Z,5.90
2022-09-28T03:00:08.823Z,5.80
2022-09-28T03:05:15.841Z,6.50
2022-09-28T03:10:59.952Z,6.40
2022-09-28T03:16:08.849Z,7.30
2022-09-28T03:21:13.719Z,7.20
2022-09-28T03:26:16.988Z,8.40
2022-09-28T03:31:19.913Z,9.30
2022-09-28T03:36:22.866Z,9.00
2022-09-28T03:41:27.930Z,9.90
2022-09-28T03:46:30.824Z,9.80
2022-09-28T03:51:33.696Z,8.90
2022-09-28T03:56:36.503Z,9.30
2022-09-28T04:01:39.454Z,9.10
2022-09-28T04:06:42.609Z,9.40
2022-09-28T04:12:02.715Z,9.70
2022-09-28T04:17:07.337Z,8.50
2022-09-28T04:22:10.495Z,9.00
2022-09-28T04:27:32.196Z,9.10
2022-09-28T04:32:35.105Z,8.00
2022-09-28T04:37:37.958Z,8.20
2022-09-28T04:42:40.758Z,7.90
2022-09-28T04:47:43.609Z,7.70
2022-09-28T04:52:46.455Z,8.20
2022-09-28T04:57:49.452Z,8.20
2022-09-28T05:02:54.278Z,8.70
2022-09-28T05:08:00.269Z,8.20
2022-09-28T05:13:03.194Z,7.90
2022-09-28T05:18:07.020Z,8.10
2022-09-28T05:23:12.497Z,7.40
2022-09-28T05:28:29.036Z,8.70
2022-09-28T05:33:33.405Z,9.10
2022-09-28T05:38:36.434Z,8.80
2022-09-28T05:43:39.361Z,9.00
2022-09-28T05:48:42.261Z,8.40
2022-09-28T05:53:45.308Z,8.10
2022-09-28T05:58:48.260Z,8.70
2022-09-28T06:03:51.138Z,7.90
2022-09-28T06:08:54.012Z,10.90
2022-09-28T06:13:56.915Z,12.60
2022-09-28T06:18:59.894Z,10.20
2022-09-28T06:24:04.119Z,12.10
2022-09-28T06:29:07.191Z,8.60
2022-09-28T06:34:11.741Z,8.80
2022-09-28T06:39:14.641Z,7.10
2022-09-28T06:44:17.623Z,7.00
2022-09-28T06:49:20.777Z,7.00
2022-09-28T06:54:25.878Z,7.30
2022-09-28T06:59:29.987Z,11.40
2022-09-28T07:04:32.906Z,6.10
2022-09-28T07:09:39.741Z,6.80
2022-09-28T07:14:48.288Z,7.20
2022-09-28T07:19:52.813Z,8.40
2022-09-28T07:24:55.762Z,4.80
2022-09-28T07:29:59.092Z,5.10
2022-09-28T07:35:05.154Z,5.50
2022-09-28T07:40:28.001Z,5.30
2022-09-28T07:45:34.255Z,6.20
2022-09-28T07:50:37.232Z,6.10
2022-09-28T07:55:40.088Z,5.40
2022-09-28T08:00:45.549Z,6.10
2022-09-28T08:05:48.581Z,5.00
2022-09-28T08:10:53.277Z,6.10
2022-09-28T08:16:01.540Z,7.50
2022-09-28T08:21:25.290Z,6.20
2022-09-28T08:26:29.244Z,4.70
2022-09-28T08:31:36.161Z,4.10
2022-09-28T08:36:39.567Z,4.10
2022-09-28T08:41:51.684Z,4.40
2022-09-28T08:47:04.653Z,3.90
2022-09-28T08:52:17.371Z,4.50
2022-09-28T08:57:31.106Z,5.10
2022-09-28T09:02:39.572Z,3.00
2022-09-28T09:08:31.000Z,3.70
2022-09-28T09:13:45.911Z,4.00
2022-09-28T09:18:59.391Z,3.50
2022-09-28T09:24:24.874Z,4.20
2022-09-28T09:29:47.887Z,3.70
2022-09-28T09:41:20.680Z,3.70
2022-09-28T09:46:30.850Z,4.20
2022-09-28T09:51:48.389Z,4.00
2022-09-28T09:57:09.882Z,4.40
2022-09-28T10:02:23.956Z,3.80
2022-09-28T10:07:51.073Z,3.30
2022-09-28T10:12:54.687Z,3.70
2022-09-28T10:18:03.129Z,3.90
2022-09-28T10:23:16.227Z,3.90
2022-09-28T10:28:35.684Z,3.90
2022-09-28T10:33:39.569Z,4.20
2022-09-28T10:38:48.371Z,4.20
2022-09-28T10:44:11.046Z,4.00
2022-09-28T10:49:18.037Z,4.80
2022-09-28T10:54:32.113Z,4.50
2022-09-28T10:59:40.768Z,5.00
2022-09-28T11:04:52.311Z,4.60
2022-09-28T11:09:55.515Z,4.40
2022-09-28T11:15:07.981Z,4.40
2022-09-28T11:20:28.489Z,3.40
2022-09-28T11:25:32.479Z,3.40
2022-09-28T11:30:49.917Z,4.10
2022-09-28T11:36:14.553Z,3.80
2022-09-28T11:41:38.660Z,4.30
2022-09-28T11:47:22.173Z,3.90
2022-09-28T11:52:35.129Z,5.00
2022-09-28T11:57:45.904Z,4.00
2022-09-28T12:03:15.806Z,4.20
2022-09-28T12:08:29.214Z,3.80
2022-09-28T12:24:21.838Z,2.50
2022-09-28T12:29:43.608Z,2.10
2022-09-28T12:34:46.499Z,2.00
2022-09-28T12:40:13.671Z,2.20
2022-09-28T12:45:28.605Z,1.90
2022-09-28T12:51:09.869Z,1.80
2022-09-28T12:56:54.001Z,1.70
2022-09-28T13:02:56.834Z,2.00
2022-09-28T13:08:18.145Z,2.50
2022-09-28T13:13:37.485Z,2.30
2022-09-28T13:19:14.856Z,2.50
2022-09-28T13:24:35.516Z,2.30
2022-09-28T13:34:50.633Z,2.00
2022-09-28T13:39:59.070Z,2.30
2022-09-28T13:45:20.331Z,2.10
2022-09-28T13:50:54.977Z,2.10
2022-09-28T13:56:19.037Z,2.20
2022-09-28T14:01:31.972Z,2.50
2022-09-28T14:06:34.988Z,1.90
2022-09-28T14:11:37.821Z,2.30
2022-09-28T14:16:42.680Z,1.90
2022-09-28T14:21:59.480Z,2.10
2022-09-28T14:27:17.505Z,2.10
2022-09-28T14:32:33.192Z,2.00
2022-09-28T14:38:00.570Z,2.00
2022-09-28T14:43:27.394Z,2.10
2022-09-28T14:49:06.148Z,2.20
2022-09-28T14:54:11.867Z,2.30
2022-09-28T14:59:19.669Z,2.40
2022-09-28T15:04:28.186Z,2.30
2022-09-28T15:09:35.211Z,2.40
2022-09-28T15:15:08.611Z,2.60
2022-09-28T15:20:38.208Z,2.50
2022-09-28T15:25:41.084Z,2.70
2022-09-28T15:30:44.055Z,5.10
2022-09-28T15:36:04.885Z,4.00
2022-09-28T15:41:10.109Z,3.10
2022-09-28T15:46:19.214Z,2.70
2022-09-28T15:51:24.687Z,3.20
2022-09-28T15:56:28.884Z,4.60
2022-09-28T16:01:37.001Z,3.50
2022-09-28T16:06:41.466Z,3.00
2022-09-28T16:11:44.375Z,5.40
2022-09-28T16:16:50.526Z,26.80
2022-09-28T16:21:56.913Z,29.10
2022-09-28T16:27:03.628Z,29.10
2022-09-28T16:32:25.373Z,36.70
2022-09-28T16:37:32.966Z,34.00
2022-09-28T16:42:37.797Z,34.70
2022-09-28T16:47:40.705Z,24.20
2022-09-28T16:53:02.488Z,27.40
2022-09-28T16:58:06.776Z,20.10
2022-09-28T17:03:21.268Z,11.20
2022-09-28T17:08:25.718Z,11.40
2022-09-28T17:13:33.298Z,7.70
2022-09-28T17:18:39.300Z,8.10
2022-09-28T17:23:44.647Z,7.60
2022-09-28T17:28:47.568Z,7.40
2022-09-28T17:33:50.485Z,7.40
2022-09-28T17:38:53.449Z,6.40
2022-09-28T17:43:56.601Z,5.90
2022-09-28T17:49:03.099Z,5.80
2022-09-28T17:54:08.278Z,4.80
2022-09-28T17:59:16.501Z,5.90
2022-09-28T18:04:47.306Z,6.10
2022-09-28T18:09:42.380Z,5.40
2022-09-28T18:14:45.205Z,5.50
2022-09-28T18:19:48.005Z,6.10
2022-09-28T18:24:50.843Z,8.30
2022-09-28T18:29:53.894Z,69.40
2022-09-28T18:34:56.683Z,11.20
2022-09-28T18:39:59.542Z,10.90
2022-09-28T18:45:05.942Z,14.60
2022-09-28T18:50:11.909Z,14.50
2022-09-28T18:55:14.755Z,20.60
2022-09-28T19:00:17.643Z,10.30
2022-09-28T19:05:20.522Z,6.80
2022-09-28T19:10:23.465Z,8.20
2022-09-28T19:15:26.471Z,10.30
2022-09-28T19:20:29.469Z,13.70
2022-09-28T19:25:32.380Z,15.10
2022-09-28T19:30:35.533Z,12.00
2022-09-28T19:35:39.877Z,9.30
2022-09-28T19:40:42.867Z,5.30
2022-09-28T19:45:45.731Z,5.40
2022-09-28T19:50:58.694Z,5.30
2022-09-28T19:56:05.086Z,5.70
2022-09-28T20:01:08.809Z,6.70
2022-09-28T20:11:21.517Z,4.80
2022-09-28T20:16:24.778Z,5.30
2022-09-28T20:21:28.110Z,5.30
2022-09-28T20:26:37.424Z,5.40
2022-09-28T20:31:40.729Z,4.90
2022-09-28T20:36:44.792Z,5.00
2022-09-28T20:41:49.150Z,5.10
2022-09-28T20:46:52.089Z,4.30
2022-09-28T20:51:54.973Z,4.30
2022-09-28T20:56:57.821Z,4.60
2022-09-28T21:02:00.764Z,4.20
2022-09-28T21:07:03.757Z,4.10
2022-09-28T21:12:07.201Z,3.80
2022-09-28T21:17:10.529Z,4.30
2022-09-28T21:22:13.466Z,4.50
2022-09-28T21:27:16.654Z,4.60
2022-09-28T21:32:19.553Z,4.70
2022-09-28T21:37:22.445Z,3.90
2022-09-28T21:42:25.343Z,3.60
2022-09-28T21:47:28.204Z,3.60
2022-09-28T21:52:31.378Z,3.10
2022-09-28T21:57:34.223Z,3.30
2022-09-28T22:02:39.159Z,3.30
2022-09-28T22:07:43.177Z,3.10
2022-09-28T22:12:46.094Z,2.70
2022-09-28T22:17:48.950Z,2.50
2022-09-28T22:22:51.893Z,3.00
2022-09-28T22:27:54.775Z,3.20
2022-09-28T22:32:57.646Z,3.30
2022-09-28T22:38:00.483Z,2.90
2022-09-28T22:43:03.373Z,2.90
2022-09-28T22:48:07.269Z,2.60
2022-09-28T22:53:10.105Z,3.30
2022-09-28T22:58:13.585Z,3.20
2022-09-28T23:03:17.911Z,3.60
2022-09-28T23:08:21.908Z,3.90
2022-09-28T23:13:25.253Z,3.70
2022-09-28T23:18:32.023Z,4.00
2022-09-28T23:23:34.901Z,3.70
2022-09-28T23:28:37.921Z,3.70
2022-09-28T23:33:41.355Z,3.70
2022-09-28T23:38:44.363Z,4.40
2022-09-28T23:43:47.411Z,3.90
2022-09-28T23:48:50.726Z,4.00
2022-09-28T23:53:53.713Z,4.00
2022-09-28T23:58:56.643Z,3.80
